createdAt,value
2022-09-23T00:16:21.073Z,69.37
2022-09-23T00:20:13.389Z,69.36
2022-09-23T00:24:05.423Z,69.09
2022-09-23T00:43:47.877Z,69.20
2022-09-23T00:47:40.207Z,69.80
2022-09-23T01:03:30.124Z,69.58
2022-09-23T01:07:21.985Z,69.96
2022-09-23T01:11:17.321Z,70.33
2022-09-23T01:15:20.851Z,70.42
2022-09-23T01:23:19.699Z,69.85
2022-09-23T01:27:16.645Z,69.69
2022-09-23T01:31:12.838Z,69.93
2022-09-23T01:35:20.227Z,70.18
2022-09-23T01:39:15.311Z,70.65
2022-09-23T01:43:04.629Z,70.87
2022-09-23T01:46:56.723Z,71.22
2022-09-23T01:51:18.613Z,71.41
2022-09-23T01:55:20.425Z,71.68
2022-09-23T01:59:10.726Z,71.71
2022-09-23T02:03:11.581Z,71.25
2022-09-23T02:07:03.804Z,71.36
2022-09-23T02:11:04.837Z,71.52
2022-09-23T02:19:08.172Z,71.69
2022-09-23T02:23:01.398Z,71.89
2022-09-23T02:27:09.874Z,72.15
2022-09-23T02:31:14.357Z,72.30
2022-09-23T02:35:06.770Z,72.66
2022-09-23T02:39:01.431Z,72.70
2022-09-23T02:43:06.455Z,72.69
2022-09-23T02:50:46.924Z,72.81
2022-09-23T02:54:37.217Z,72.37
2022-09-23T02:58:32.082Z,72.45
2022-09-23T03:02:25.138Z,72.57
2022-09-23T03:06:20.053Z,72.36
2022-09-23T03:10:17.469Z,72.85
2022-09-23T03:14:03.478Z,72.85
2022-09-23T03:21:55.011Z,73.60
2022-09-23T03:25:47.242Z,73.75
2022-09-23T03:29:35.080Z,73.97
2022-09-23T04:00:35.678Z,74.54
2022-09-23T04:04:21.097Z,74.67
2022-09-23T04:08:12.292Z,74.75
2022-09-23T04:12:04.699Z,75.02
2022-09-23T04:27:52.186Z,75.27
2022-09-23T04:31:47.934Z,75.26
2022-09-23T04:35:40.572Z,75.65
2022-09-23T04:39:34.315Z,75.98
2022-09-23T04:59:08.798Z,76.02
2022-09-23T05:02:59.868Z,76.24
2022-09-23T05:22:15.774Z,76.96
2022-09-23T05:26:07.966Z,77.18
2022-09-23T05:30:01.476Z,77.10
2022-09-23T05:33:54.367Z,77.26
2022-09-23T05:49:59.591Z,77.43
2022-09-23T05:53:51.036Z,77.28
2022-09-23T05:57:44.027Z,76.95
2022-09-23T06:12:25.526Z,75.40
2022-09-23T06:16:18.226Z,74.99
2022-09-23T06:20:10.324Z,74.58
2022-09-23T06:24:05.990Z,74.48
2022-09-23T06:35:59.212Z,72.82
2022-09-23T06:39:53.165Z,70.90
2022-09-23T06:43:49.880Z,70.10
2022-09-23T06:59:23.757Z,66.29
2022-09-23T07:03:15.099Z,65.52
2022-09-23T07:07:07.165Z,64.53
2022-09-23T07:10:59.770Z,62.03
2022-09-23T07:30:17.875Z,59.17
2022-09-23T07:34:15.531Z,58.89
2022-09-23T07:38:08.802Z,57.95
2022-09-23T07:42:01.917Z,58.73
2022-09-23T07:57:52.569Z,57.24
2022-09-23T08:01:26.721Z,56.76
2022-09-23T08:05:09.189Z,54.90
2022-09-23T08:28:24.152Z,54.24
2022-09-23T08:32:15.967Z,54.64
2022-09-23T08:36:08.284Z,53.69
2022-09-23T08:39:53.222Z,52.64
2022-09-23T08:59:03.239Z,50.89
2022-09-23T09:02:56.685Z,49.98
2022-09-23T09:06:53.709Z,51.13
2022-09-23T09:10:43.407Z,51.85
2022-09-23T09:14:36.018Z,49.45
2022-09-23T09:18:43.645Z,47.43
2022-09-23T09:22:15.917Z,47.22
2022-09-23T09:26:28.907Z,46.58
2022-09-23T09:30:20.500Z,46.46
2022-09-23T09:34:22.634Z,46.03
2022-09-23T09:38:16.920Z,44.82
2022-09-23T09:42:01.840Z,44.78
2022-09-23T09:46:03.851Z,46.84
2022-09-23T09:50:11.838Z,46.63
2022-09-23T09:54:07.447Z,46.64
2022-09-23T09:57:56.940Z,44.82
2022-09-23T10:01:49.518Z,46.16
2022-09-23T10:05:32.759Z,47.19
2022-09-23T10:09:01.160Z,45.91
2022-09-23T10:12:38.945Z,44.84
2022-09-23T10:16:18.496Z,44.55
2022-09-23T10:19:55.734Z,44.59
2022-09-23T10:23:47.554Z,44.96
2022-09-23T10:27:39.697Z,44.36
2022-09-23T10:43:07.512Z,43.14
2022-09-23T11:10:53.392Z,42.53
2022-09-23T11:15:02.585Z,42.32
2022-09-23T11:19:06.194Z,42.84
2022-09-23T11:22:49.336Z,42.04
2022-09-23T11:26:46.626Z,42.63
2022-09-23T11:30:39.826Z,40.99
2022-09-23T11:34:43.475Z,41.52
2022-09-23T11:38:25.372Z,42.60
2022-09-23T11:42:20.617Z,42.61
2022-09-23T11:46:09.513Z,40.86
2022-09-23T11:50:12.998Z,41.62
2022-09-23T11:53:54.801Z,41.07
2022-09-23T11:57:48.188Z,40.70
2022-09-23T12:01:36.562Z,39.94
2022-09-23T12:05:29.625Z,41.45
2022-09-23T12:09:35.782Z,43.99
2022-09-23T12:13:38.657Z,44.99
2022-09-23T12:17:45.561Z,46.27
2022-09-23T12:21:48.671Z,47.21
2022-09-23T12:25:18.626Z,46.48
2022-09-23T12:29:15.823Z,46.39
2022-09-23T12:33:08.240Z,46.32
2022-09-23T12:37:07.743Z,46.86
2022-09-23T12:41:05.357Z,46.93
2022-09-23T12:45:08.626Z,44.71
2022-09-23T12:48:59.364Z,44.18
2022-09-23T12:52:54.260Z,45.06
2022-09-23T12:56:50.505Z,45.86
2022-09-23T13:00:56.791Z,47.45
2022-09-23T13:04:47.078Z,47.89
2022-09-23T13:16:18.495Z,47.34
2022-09-23T13:47:21.964Z,43.80
2022-09-23T13:51:14.427Z,44.93
2022-09-23T13:55:08.330Z,46.22
2022-09-23T13:59:01.754Z,46.38
2022-09-23T14:02:55.594Z,46.02
2022-09-23T14:06:51.749Z,45.61
2022-09-23T15:53:36.059Z,57.89
2022-09-23T15:57:21.239Z,58.37
2022-09-23T16:01:16.439Z,59.22
2022-09-23T16:05:08.851Z,59.01
2022-09-23T16:24:45.205Z,59.24
2022-09-23T16:28:37.790Z,59.32
2022-09-23T16:32:29.928Z,59.28
2022-09-23T16:36:22.328Z,59.49
2022-09-23T16:55:40.981Z,60.62
2022-09-23T16:59:33.592Z,61.71
2022-09-23T17:03:25.141Z,62.61
2022-09-23T17:07:18.720Z,62.60
2022-09-23T17:19:07.592Z,63.34
2022-09-23T17:23:00.351Z,63.59
2022-09-23T17:26:53.708Z,64.10
2022-09-23T17:30:47.815Z,63.90
2022-09-23T17:50:16.077Z,65.01
2022-09-23T17:54:08.174Z,65.10
2022-09-23T17:58:03.525Z,65.15
2022-09-23T18:13:51.058Z,65.51
2022-09-23T18:17:42.962Z,65.51
2022-09-23T18:21:35.333Z,66.50
2022-09-23T18:25:39.122Z,66.53
2022-09-23T18:45:11.663Z,67.44
2022-09-23T18:49:00.479Z,67.19
2022-09-23T18:52:52.212Z,67.54
2022-09-23T19:12:32.685Z,68.10
2022-09-23T19:16:25.206Z,68.71
2022-09-23T19:20:13.984Z,68.91
2022-09-23T19:24:06.749Z,69.26
2022-09-23T19:40:07.667Z,68.92
2022-09-23T19:44:00.042Z,69.13
2022-09-23T19:47:51.285Z,69.00
2022-09-23T19:51:46.646Z,68.87
2022-09-23T20:03:30.443Z,68.93
2022-09-23T20:07:23.293Z,69.28
2022-09-23T20:11:13.212Z,69.19
2022-09-23T20:15:05.462Z,68.94
2022-09-23T20:27:04.305Z,69.15
2022-09-23T20:30:54.524Z,69.62
2022-09-23T20:46:56.322Z,69.84
2022-09-23T20:50:41.251Z,69.48
2022-09-23T20:54:33.343Z,69.85
2022-09-23T20:58:26.845Z,69.38
2022-09-23T21:17:35.470Z,69.49
2022-09-23T21:21:36.790Z,69.76
2022-09-23T21:25:31.841Z,68.91
2022-09-23T21:29:24.191Z,69.38
2022-09-23T21:33:16.320Z,68.69
2022-09-23T21:53:02.627Z,68.33
2022-09-23T21:56:56.083Z,68.09
2022-09-23T22:00:49.522Z,68.33
2022-09-23T22:04:40.017Z,67.47
2022-09-23T22:12:47.062Z,67.57
2022-09-23T22:16:38.405Z,67.97
2022-09-23T22:20:32.519Z,67.66
2022-09-23T22:36:22.280Z,67.63
2022-09-23T22:39:13.711Z,67.34
2022-09-23T22:43:05.253Z,67.51
2022-09-23T22:46:51.839Z,67.89
2022-09-23T23:06:08.688Z,67.72
2022-09-23T23:10:00.186Z,67.21
2022-09-23T23:13:55.151Z,67.31
2022-09-23T23:17:45.422Z,67.54
2022-09-23T23:21:38.374Z,68.10
2022-09-23T23:41:13.483Z,67.80
2022-09-23T23:45:06.454Z,68.51
2022-09-23T23:48:57.575Z,68.77
2022-09-23T23:52:48.890Z,69.04
